sensor_id;sensor_type;location;lat;lon;timestamp;pressure;altitude;pressure_sealevel;temperature;humidity
37200;BME280;23096;50.892;16.746;2023-07-20T00:01:43;98816.70;;;17.63;55.39
37200;BME280;23096;50.892;16.746;2023-07-20T00:04:10;98812.92;;;17.52;55.69
37200;BME280;23096;50.892;16.746;2023-07-20T00:06:35;98803.14;;;17.45;56.21
37200;BME280;23096;50.892;16.746;2023-07-20T00:09:01;98800.42;;;17.36;56.39
37200;BME280;23096;50.892;16.746;2023-07-20T00:11:27;98806.39;;;17.30;56.71
37200;BME280;23096;50.892;16.746;2023-07-20T00:13:53;98799.93;;;17.20;57.14
37200;BME280;23096;50.892;16.746;2023-07-20T00:16:18;98781.12;;;17.11;57.51
37200;BME280;23096;50.892;16.746;2023-07-20T00:18:44;98774.42;;;17.04;57.82
37200;BME280;23096;50.892;16.746;2023-07-20T00:21:09;98771.13;;;16.99;58.25
37200;BME280;23096;50.892;16.746;2023-07-20T00:23:35;98770.58;;;16.94;58.58
37200;BME280;23096;50.892;16.746;2023-07-20T00:26:00;98768.30;;;16.92;59.07
37200;BME280;23096;50.892;16.746;2023-07-20T00:28:26;98761.64;;;16.88;59.10
37200;BME280;23096;50.892;16.746;2023-07-20T00:30:51;98751.39;;;16.85;59.51
37200;BME280;23096;50.892;16.746;2023-07-20T00:33:18;98735.98;;;16.87;59.67
37200;BME280;23096;50.892;16.746;2023-07-20T00:35:43;98733.50;;;16.91;60.06
37200;BME280;23096;50.892;16.746;2023-07-20T00:38:09;98736.58;;;16.92;60.20
37200;BME280;23096;50.892;16.746;2023-07-20T00:40:39;98733.77;;;16.92;60.39
37200;BME280;23096;50.892;16.746;2023-07-20T00:43:05;98721.94;;;16.95;60.61
37200;BME280;23096;50.892;16.746;2023-07-20T00:45:31;98719.55;;;17.00;60.86
37200;BME280;23096;50.892;16.746;2023-07-20T00:47:57;98717.47;;;17.05;60.80
37200;BME280;23096;50.892;16.746;2023-07-20T00:50:24;98707.73;;;17.11;60.99
37200;BME280;23096;50.892;16.746;2023-07-20T00:52:50;98694.79;;;17.17;61.07
37200;BME280;23096;50.892;16.746;2023-07-20T00:55:19;98687.25;;;17.24;61.16
37200;BME280;23096;50.892;16.746;2023-07-20T00:57:44;98704.36;;;17.25;61.09
37200;BME280;23096;50.892;16.746;2023-07-20T01:00:11;98730.33;;;17.23;61.12
37200;BME280;23096;50.892;16.746;2023-07-20T01:02:37;98742.08;;;17.19;61.21
37200;BME280;23096;50.892;16.746;2023-07-20T01:05:03;98737.23;;;17.16;61.43
37200;BME280;23096;50.892;16.746;2023-07-20T01:07:39;98729.98;;;17.18;61.45
37200;BME280;23096;50.892;16.746;2023-07-20T01:10:21;98720.05;;;17.21;61.43
37200;BME280;23096;50.892;16.746;2023-07-20T01:12:52;98714.83;;;17.24;61.39
37200;BME280;23096;50.892;16.746;2023-07-20T01:15:18;98708.40;;;17.27;61.60
37200;BME280;23096;50.892;16.746;2023-07-20T01:17:44;98709.63;;;17.29;61.53
37200;BME280;23096;50.892;16.746;2023-07-20T01:20:13;98706.13;;;17.32;61.61
37200;BME280;23096;50.892;16.746;2023-07-20T01:25:45;98704.11;;;17.38;61.59
37200;BME280;23096;50.892;16.746;2023-07-20T01:31:21;98714.89;;;17.41;61.69
37200;BME280;23096;50.892;16.746;2023-07-20T01:33:50;98718.88;;;17.41;61.83
37200;BME280;23096;50.892;16.746;2023-07-20T01:36:18;98720.69;;;17.42;61.81
37200;BME280;23096;50.892;16.746;2023-07-20T01:38:45;98729.46;;;17.41;61.92
37200;BME280;23096;50.892;16.746;2023-07-20T01:41:11;98732.80;;;17.38;61.72
37200;BME280;23096;50.892;16.746;2023-07-20T01:43:37;98733.89;;;17.35;61.76
37200;BME280;23096;50.892;16.746;2023-07-20T01:46:04;98723.95;;;17.33;61.72
37200;BME280;23096;50.892;16.746;2023-07-20T01:48:29;98719.61;;;17.33;61.94
37200;BME280;23096;50.892;16.746;2023-07-20T01:50:55;98715.25;;;17.33;61.88
37200;BME280;23096;50.892;16.746;2023-07-20T01:53:21;98717.25;;;17.34;62.00
37200;BME280;23096;50.892;16.746;2023-07-20T01:55:47;98721.38;;;17.35;62.05
37200;BME280;23096;50.892;16.746;2023-07-20T01:58:13;98724.23;;;17.36;61.97
37200;BME280;23096;50.892;16.746;2023-07-20T02:00:38;98720.73;;;17.39;62.12
37200;BME280;23096;50.892;16.746;2023-07-20T02:03:04;98724.75;;;17.41;62.09
37200;BME280;23096;50.892;16.746;2023-07-20T02:05:30;98733.86;;;17.42;62.05
37200;BME280;23096;50.892;16.746;2023-07-20T02:07:55;98734.16;;;17.38;62.06
37200;BME280;23096;50.892;16.746;2023-07-20T02:10:21;98734.44;;;17.34;62.10
37200;BME280;23096;50.892;16.746;2023-07-20T02:12:47;98739.05;;;17.33;62.17
37200;BME280;23096;50.892;16.746;2023-07-20T02:15:14;98741.64;;;17.30;62.14
37200;BME280;23096;50.892;16.746;2023-07-20T02:17:42;98736.23;;;17.26;62.27
37200;BME280;23096;50.892;16.746;2023-07-20T02:20:09;98740.70;;;17.21;62.20
37200;BME280;23096;50.892;16.746;2023-07-20T02:22:38;98741.86;;;17.17;62.30
37200;BME280;23096;50.892;16.746;2023-07-20T02:25:07;98742.13;;;17.13;62.32
37200;BME280;23096;50.892;16.746;2023-07-20T02:27:34;98741.23;;;17.11;62.25
37200;BME280;23096;50.892;16.746;2023-07-20T02:30:00;98738.27;;;17.08;62.49
37200;BME280;23096;50.892;16.746;2023-07-20T02:32:25;98737.78;;;17.08;62.72
37200;BME280;23096;50.892;16.746;2023-07-20T02:34:51;98747.00;;;17.07;62.55
37200;BME280;23096;50.892;16.746;2023-07-20T02:37:17;98749.38;;;17.05;62.60
37200;BME280;23096;50.892;16.746;2023-07-20T02:39:43;98750.50;;;17.01;62.64
37200;BME280;23096;50.892;16.746;2023-07-20T02:42:08;98756.61;;;16.96;62.67
37200;BME280;23096;50.892;16.746;2023-07-20T02:44:34;98753.34;;;16.90;62.80
37200;BME280;23096;50.892;16.746;2023-07-20T02:46:59;98754.80;;;16.83;62.86
37200;BME280;23096;50.892;16.746;2023-07-20T02:49:25;98751.05;;;16.79;62.96
37200;BME280;23096;50.892;16.746;2023-07-20T02:51:51;98748.85;;;16.76;63.05
37200;BME280;23096;50.892;16.746;2023-07-20T02:54:16;98743.09;;;16.68;63.02
37200;BME280;23096;50.892;16.746;2023-07-20T02:56:42;98743.70;;;16.64;63.19
37200;BME280;23096;50.892;16.746;2023-07-20T02:59:08;98747.77;;;16.63;63.16
37200;BME280;23096;50.892;16.746;2023-07-20T03:01:33;98749.77;;;16.62;63.15
37200;BME280;23096;50.892;16.746;2023-07-20T03:03:59;98752.21;;;16.61;63.47
37200;BME280;23096;50.892;16.746;2023-07-20T03:06:24;98754.05;;;16.60;63.47
37200;BME280;23096;50.892;16.746;2023-07-20T03:08:50;98752.39;;;16.59;63.46
37200;BME280;23096;50.892;16.746;2023-07-20T03:11:20;98747.55;;;16.58;63.64
37200;BME280;23096;50.892;16.746;2023-07-20T03:13:46;98745.60;;;16.59;63.65
37200;BME280;23096;50.892;16.746;2023-07-20T03:16:14;98746.45;;;16.57;63.64
37200;BME280;23096;50.892;16.746;2023-07-20T03:18:41;98750.20;;;16.55;63.81
37200;BME280;23096;50.892;16.746;2023-07-20T03:21:08;98751.77;;;16.55;63.97
37200;BME280;23096;50.892;16.746;2023-07-20T03:23:34;98748.35;;;16.57;64.05
37200;BME280;23096;50.892;16.746;2023-07-20T03:26:03;98748.15;;;16.57;64.10
37200;BME280;23096;50.892;16.746;2023-07-20T03:28:28;98752.52;;;16.57;64.00
37200;BME280;23096;50.892;16.746;2023-07-20T03:30:57;98748.77;;;16.58;64.25
37200;BME280;23096;50.892;16.746;2023-07-20T03:33:28;98748.50;;;16.60;64.12
37200;BME280;23096;50.892;16.746;2023-07-20T03:35:56;98750.96;;;16.62;64.31
37200;BME280;23096;50.892;16.746;2023-07-20T03:38:22;98748.03;;;16.62;64.42
37200;BME280;23096;50.892;16.746;2023-07-20T03:40:58;98747.73;;;16.61;64.55
37200;BME280;23096;50.892;16.746;2023-07-20T03:43:25;98749.20;;;16.62;64.53
37200;BME280;23096;50.892;16.746;2023-07-20T03:45:51;98750.96;;;16.65;64.65
37200;BME280;23096;50.892;16.746;2023-07-20T03:48:22;98749.08;;;16.64;64.72
37200;BME280;23096;50.892;16.746;2023-07-20T03:50:49;98747.61;;;16.65;64.84
37200;BME280;23096;50.892;16.746;2023-07-20T03:53:16;98743.98;;;16.65;64.94
37200;BME280;23096;50.892;16.746;2023-07-20T03:55:49;98745.98;;;16.64;64.84
37200;BME280;23096;50.892;16.746;2023-07-20T03:58:15;98748.68;;;16.65;65.01
37200;BME280;23096;50.892;16.746;2023-07-20T04:00:51;98745.50;;;16.66;65.14
37200;BME280;23096;50.892;16.746;2023-07-20T04:03:18;98744.87;;;16.67;65.34
37200;BME280;23096;50.892;16.746;2023-07-20T04:05:44;98746.92;;;16.68;65.38
37200;BME280;23096;50.892;16.746;2023-07-20T04:08:10;98745.19;;;16.71;65.42
37200;BME280;23096;50.892;16.746;2023-07-20T04:10:42;98748.25;;;16.74;65.59
37200;BME280;23096;50.892;16.746;2023-07-20T04:13:08;98750.52;;;16.77;65.56
37200;BME280;23096;50.892;16.746;2023-07-20T04:15:34;98753.95;;;16.78;65.53
37200;BME280;23096;50.892;16.746;2023-07-20T04:17:59;98758.73;;;16.76;65.62
37200;BME280;23096;50.892;16.746;2023-07-20T04:20:26;98764.34;;;16.73;65.80
37200;BME280;23096;50.892;16.746;2023-07-20T04:22:51;98766.27;;;16.72;65.77
37200;BME280;23096;50.892;16.746;2023-07-20T04:25:18;98771.20;;;16.71;65.90
37200;BME280;23096;50.892;16.746;2023-07-20T04:27:44;98776.47;;;16.70;65.85
37200;BME280;23096;50.892;16.746;2023-07-20T04:30:11;98778.66;;;16.71;66.11
37200;BME280;23096;50.892;16.746;2023-07-20T04:32:37;98780.00;;;16.72;66.09
37200;BME280;23096;50.892;16.746;2023-07-20T04:35:07;98778.54;;;16.73;66.27
37200;BME280;23096;50.892;16.746;2023-07-20T04:37:35;98782.98;;;16.74;66.13
37200;BME280;23096;50.892;16.746;2023-07-20T04:40:01;98785.86;;;16.72;66.28
37200;BME280;23096;50.892;16.746;2023-07-20T04:42:28;98786.81;;;16.74;66.39
37200;BME280;23096;50.892;16.746;2023-07-20T04:44:54;98790.91;;;16.77;66.37
37200;BME280;23096;50.892;16.746;2023-07-20T04:47:19;98794.22;;;16.77;66.48
37200;BME280;23096;50.892;16.746;2023-07-20T04:49:46;98799.04;;;16.78;66.58
37200;BME280;23096;50.892;16.746;2023-07-20T04:52:12;98801.73;;;16.76;66.64
37200;BME280;23096;50.892;16.746;2023-07-20T04:54:38;98808.67;;;16.76;66.66
37200;BME280;23096;50.892;16.746;2023-07-20T04:57:09;98810.24;;;16.79;66.58
37200;BME280;23096;50.892;16.746;2023-07-20T04:59:38;98817.89;;;16.78;66.76
37200;BME280;23096;50.892;16.746;2023-07-20T05:02:04;98821.52;;;16.76;66.71
37200;BME280;23096;50.892;16.746;2023-07-20T05:04:29;98816.27;;;16.74;66.70
37200;BME280;23096;50.892;16.746;2023-07-20T05:06:55;98819.68;;;16.72;66.81
37200;BME280;23096;50.892;16.746;2023-07-20T05:09:21;98820.73;;;16.72;66.74
37200;BME280;23096;50.892;16.746;2023-07-20T05:11:48;98822.89;;;16.73;67.00
37200;BME280;23096;50.892;16.746;2023-07-20T05:14:14;98822.30;;;16.74;67.02
37200;BME280;23096;50.892;16.746;2023-07-20T05:16:39;98822.10;;;16.75;66.98
37200;BME280;23096;50.892;16.746;2023-07-20T05:19:06;98819.44;;;16.76;66.96
37200;BME280;23096;50.892;16.746;2023-07-20T05:21:32;98818.28;;;16.77;67.17
37200;BME280;23096;50.892;16.746;2023-07-20T05:23:57;98817.14;;;16.79;67.09
37200;BME280;23096;50.892;16.746;2023-07-20T05:26:23;98823.09;;;16.81;67.23
37200;BME280;23096;50.892;16.746;2023-07-20T05:28:48;98826.57;;;16.84;67.55
37200;BME280;23096;50.892;16.746;2023-07-20T05:31:14;98829.98;;;16.85;67.23
37200;BME280;23096;50.892;16.746;2023-07-20T05:33:40;98831.98;;;16.86;67.48
37200;BME280;23096;50.892;16.746;2023-07-20T05:36:06;98833.21;;;16.86;67.68
37200;BME280;23096;50.892;16.746;2023-07-20T05:38:31;98832.83;;;16.89;67.59
37200;BME280;23096;50.892;16.746;2023-07-20T05:40:59;98831.17;;;16.91;67.67
37200;BME280;23096;50.892;16.746;2023-07-20T05:43:26;98833.46;;;16.95;67.60
37200;BME280;23096;50.892;16.746;2023-07-20T05:45:51;98829.52;;;17.00;67.67
37200;BME280;23096;50.892;16.746;2023-07-20T05:48:17;98831.90;;;17.06;67.81
37200;BME280;23096;50.892;16.746;2023-07-20T05:50:43;98831.47;;;17.16;67.80
37200;BME280;23096;50.892;16.746;2023-07-20T05:53:09;98835.33;;;17.20;67.91
37200;BME280;23096;50.892;16.746;2023-07-20T05:55:34;98828.94;;;17.22;68.05
37200;BME280;23096;50.892;16.746;2023-07-20T05:58:00;98823.00;;;17.23;68.17
37200;BME280;23096;50.892;16.746;2023-07-20T06:00:26;98829.98;;;17.28;68.02
37200;BME280;23096;50.892;16.746;2023-07-20T06:02:53;98832.94;;;17.35;68.14
37200;BME280;23096;50.892;16.746;2023-07-20T06:05:19;98834.43;;;17.42;68.00
37200;BME280;23096;50.892;16.746;2023-07-20T06:07:46;98843.58;;;17.48;68.10
37200;BME280;23096;50.892;16.746;2023-07-20T06:10:11;98843.70;;;17.54;68.24
37200;BME280;23096;50.892;16.746;2023-07-20T06:12:37;98844.55;;;17.62;68.36
37200;BME280;23096;50.892;16.746;2023-07-20T06:15:04;98846.89;;;17.71;68.23
37200;BME280;23096;50.892;16.746;2023-07-20T06:17:30;98852.92;;;17.79;68.42
37200;BME280;23096;50.892;16.746;2023-07-20T06:19:55;98851.64;;;17.83;68.26
37200;BME280;23096;50.892;16.746;2023-07-20T06:22:21;98851.16;;;17.86;68.66
37200;BME280;23096;50.892;16.746;2023-07-20T06:24:46;98849.92;;;17.86;68.39
37200;BME280;23096;50.892;16.746;2023-07-20T06:27:12;98852.48;;;17.81;68.31
37200;BME280;23096;50.892;16.746;2023-07-20T06:29:37;98851.42;;;17.79;68.67
37200;BME280;23096;50.892;16.746;2023-07-20T06:32:04;98854.73;;;17.81;68.50
37200;BME280;23096;50.892;16.746;2023-07-20T06:34:30;98856.75;;;17.85;68.53
37200;BME280;23096;50.892;16.746;2023-07-20T06:36:55;98857.19;;;17.92;68.74
37200;BME280;23096;50.892;16.746;2023-07-20T06:39:21;98861.36;;;17.94;68.69
37200;BME280;23096;50.892;16.746;2023-07-20T06:41:47;98861.23;;;17.93;68.58
37200;BME280;23096;50.892;16.746;2023-07-20T06:44:13;98864.39;;;17.95;68.56
37200;BME280;23096;50.892;16.746;2023-07-20T06:46:38;98865.53;;;17.96;68.63
37200;BME280;23096;50.892;16.746;2023-07-20T06:49:06;98858.98;;;17.98;68.47
37200;BME280;23096;50.892;16.746;2023-07-20T06:51:34;98857.66;;;18.05;68.49
37200;BME280;23096;50.892;16.746;2023-07-20T06:54:00;98859.64;;;18.14;68.77
37200;BME280;23096;50.892;16.746;2023-07-20T06:56:26;98865.69;;;18.22;68.61
37200;BME280;23096;50.892;16.746;2023-07-20T06:58:51;98870.92;;;18.25;68.25
37200;BME280;23096;50.892;16.746;2023-07-20T07:01:18;98874.87;;;18.23;68.12
37200;BME280;23096;50.892;16.746;2023-07-20T07:03:44;98874.02;;;18.20;68.15
37200;BME280;23096;50.892;16.746;2023-07-20T07:06:09;98874.38;;;18.17;68.09
37200;BME280;23096;50.892;16.746;2023-07-20T07:08:35;98871.27;;;18.22;68.23
37200;BME280;23096;50.892;16.746;2023-07-20T07:11:01;98873.33;;;18.32;68.24
37200;BME280;23096;50.892;16.746;2023-07-20T07:13:27;98874.54;;;18.42;68.09
37200;BME280;23096;50.892;16.746;2023-07-20T07:15:52;98872.67;;;18.52;68.03
37200;BME280;23096;50.892;16.746;2023-07-20T07:18:18;98875.91;;;18.55;67.90
37200;BME280;23096;50.892;16.746;2023-07-20T07:20:50;98876.16;;;18.54;67.70
37200;BME280;23096;50.892;16.746;2023-07-20T07:23:16;98878.88;;;18.52;67.58
37200;BME280;23096;50.892;16.746;2023-07-20T07:25:42;98881.05;;;18.49;67.41
37200;BME280;23096;50.892;16.746;2023-07-20T07:28:07;98882.86;;;18.48;67.32
37200;BME280;23096;50.892;16.746;2023-07-20T07:30:33;98881.80;;;18.53;67.53
37200;BME280;23096;50.892;16.746;2023-07-20T07:32:58;98881.39;;;18.61;67.54
37200;BME280;23096;50.892;16.746;2023-07-20T07:35:24;98884.55;;;18.68;67.44
37200;BME280;23096;50.892;16.746;2023-07-20T07:37:49;98882.95;;;18.74;67.37
37200;BME280;23096;50.892;16.746;2023-07-20T07:40:15;98880.95;;;18.77;67.11
37200;BME280;23096;50.892;16.746;2023-07-20T07:42:40;98886.08;;;18.86;67.11
37200;BME280;23096;50.892;16.746;2023-07-20T07:45:07;98887.09;;;18.89;67.03
37200;BME280;23096;50.892;16.746;2023-07-20T07:47:32;98882.81;;;18.88;66.50
37200;BME280;23096;50.892;16.746;2023-07-20T07:49:58;98885.45;;;18.90;66.56
37200;BME280;23096;50.892;16.746;2023-07-20T07:52:24;98884.68;;;18.89;66.38
37200;BME280;23096;50.892;16.746;2023-07-20T07:54:49;98889.52;;;18.85;66.22
37200;BME280;23096;50.892;16.746;2023-07-20T07:57:15;98887.95;;;18.82;65.95
37200;BME280;23096;50.892;16.746;2023-07-20T07:59:40;98883.21;;;18.85;66.10
37200;BME280;23096;50.892;16.746;2023-07-20T08:02:06;98875.70;;;18.92;66.01
37200;BME280;23096;50.892;16.746;2023-07-20T08:04:32;98876.41;;;19.05;66.04
37200;BME280;23096;50.892;16.746;2023-07-20T08:06:59;98879.86;;;19.20;66.10
37200;BME280;23096;50.892;16.746;2023-07-20T08:09:25;98885.36;;;19.37;66.10
37200;BME280;23096;50.892;16.746;2023-07-20T08:11:51;98884.86;;;19.53;65.93
37200;BME280;23096;50.892;16.746;2023-07-20T08:14:16;98887.73;;;19.64;65.77
37200;BME280;23096;50.892;16.746;2023-07-20T08:16:42;98893.38;;;19.65;65.38
37200;BME280;23096;50.892;16.746;2023-07-20T08:19:08;98892.61;;;19.66;65.18
37200;BME280;23096;50.892;16.746;2023-07-20T08:21:34;98898.82;;;19.67;64.99
37200;BME280;23096;50.892;16.746;2023-07-20T08:23:59;98895.60;;;19.70;65.05
37200;BME280;23096;50.892;16.746;2023-07-20T08:26:25;98896.63;;;19.80;64.92
37200;BME280;23096;50.892;16.746;2023-07-20T08:28:50;98902.01;;;19.92;64.71
37200;BME280;23096;50.892;16.746;2023-07-20T08:31:15;98897.83;;;19.97;64.40
37200;BME280;23096;50.892;16.746;2023-07-20T08:33:41;98895.02;;;19.99;64.28
37200;BME280;23096;50.892;16.746;2023-07-20T08:36:07;98892.48;;;20.07;64.31
37200;BME280;23096;50.892;16.746;2023-07-20T08:38:33;98895.83;;;20.23;64.23
37200;BME280;23096;50.892;16.746;2023-07-20T08:40:58;98895.27;;;20.35;64.04
37200;BME280;23096;50.892;16.746;2023-07-20T08:43:25;98898.81;;;20.41;63.76
37200;BME280;23096;50.892;16.746;2023-07-20T08:45:55;98902.64;;;20.41;63.38
37200;BME280;23096;50.892;16.746;2023-07-20T08:48:24;98906.59;;;20.32;63.08
37200;BME280;23096;50.892;16.746;2023-07-20T08:50:51;98903.52;;;20.20;62.72
37200;BME280;23096;50.892;16.746;2023-07-20T08:53:18;98905.36;;;20.15;62.46
37200;BME280;23096;50.892;16.746;2023-07-20T08:55:44;98904.99;;;20.13;62.43
37200;BME280;23096;50.892;16.746;2023-07-20T08:58:13;98904.86;;;20.14;62.18
37200;BME280;23096;50.892;16.746;2023-07-20T09:00:41;98907.33;;;20.23;61.99
37200;BME280;23096;50.892;16.746;2023-07-20T09:03:07;98908.00;;;20.30;61.68
37200;BME280;23096;50.892;16.746;2023-07-20T09:05:33;98904.73;;;20.37;61.53
37200;BME280;23096;50.892;16.746;2023-07-20T09:08:01;98904.48;;;20.42;61.41
37200;BME280;23096;50.892;16.746;2023-07-20T09:10:29;98902.65;;;20.43;61.30
37200;BME280;23096;50.892;16.746;2023-07-20T09:12:55;98904.77;;;20.47;61.00
37200;BME280;23096;50.892;16.746;2023-07-20T09:15:21;98904.78;;;20.58;61.08
37200;BME280;23096;50.892;16.746;2023-07-20T09:17:50;98904.81;;;20.69;61.17
37200;BME280;23096;50.892;16.746;2023-07-20T09:20:17;98905.44;;;20.84;61.07
37200;BME280;23096;50.892;16.746;2023-07-20T09:22:44;98899.30;;;21.01;60.90
37200;BME280;23096;50.892;16.746;2023-07-20T09:25:14;98897.36;;;21.15;60.67
37200;BME280;23096;50.892;16.746;2023-07-20T09:27:41;98899.27;;;21.19;60.26
37200;BME280;23096;50.892;16.746;2023-07-20T09:30:07;98899.87;;;21.16;60.06
37200;BME280;23096;50.892;16.746;2023-07-20T09:32:42;98900.59;;;21.16;59.85
37200;BME280;23096;50.892;16.746;2023-07-20T09:35:15;98901.92;;;21.14;59.65
37200;BME280;23096;50.892;16.746;2023-07-20T09:37:48;98893.38;;;21.14;59.52
37200;BME280;23096;50.892;16.746;2023-07-20T09:40:18;98881.94;;;21.17;59.57
37200;BME280;23096;50.892;16.746;2023-07-20T09:42:44;98884.30;;;21.20;59.37
37200;BME280;23096;50.892;16.746;2023-07-20T09:45:10;98883.00;;;21.23;59.02
37200;BME280;23096;50.892;16.746;2023-07-20T09:47:37;98881.94;;;21.31;58.89
37200;BME280;23096;50.892;16.746;2023-07-20T09:50:04;98884.15;;;21.39;58.73
37200;BME280;23096;50.892;16.746;2023-07-20T09:52:30;98881.06;;;21.45;58.54
37200;BME280;23096;50.892;16.746;2023-07-20T09:54:57;98880.52;;;21.54;58.24
37200;BME280;23096;50.892;16.746;2023-07-20T09:57:25;98883.17;;;21.62;57.96
37200;BME280;23096;50.892;16.746;2023-07-20T09:59:51;98886.10;;;21.73;57.73
37200;BME280;23096;50.892;16.746;2023-07-20T10:02:32;98885.30;;;21.79;57.61
37200;BME280;23096;50.892;16.746;2023-07-20T10:05:02;98878.78;;;21.83;57.22
37200;BME280;23096;50.892;16.746;2023-07-20T10:07:30;98876.59;;;21.89;56.86
37200;BME280;23096;50.892;16.746;2023-07-20T10:09:58;98874.98;;;21.91;56.67
37200;BME280;23096;50.892;16.746;2023-07-20T10:12:25;98872.38;;;21.93;56.39
37200;BME280;23096;50.892;16.746;2023-07-20T10:15:18;98872.25;;;21.90;56.12
37200;BME280;23096;50.892;16.746;2023-07-20T10:17:49;98872.20;;;21.91;55.86
37200;BME280;23096;50.892;16.746;2023-07-20T10:20:19;98868.86;;;21.95;55.88
37200;BME280;23096;50.892;16.746;2023-07-20T10:22:47;98860.39;;;22.04;55.82
37200;BME280;23096;50.892;16.746;2023-07-20T10:25:16;98858.75;;;22.20;55.64
37200;BME280;23096;50.892;16.746;2023-07-20T10:27:43;98857.59;;;22.31;55.50
37200;BME280;23096;50.892;16.746;2023-07-20T10:30:09;98856.55;;;22.35;55.15
37200;BME280;23096;50.892;16.746;2023-07-20T10:32:35;98849.60;;;22.45;55.02
37200;BME280;23096;50.892;16.746;2023-07-20T10:35:00;98846.21;;;22.62;55.04
37200;BME280;23096;50.892;16.746;2023-07-20T10:37:52;98845.69;;;22.81;54.65
37200;BME280;23096;50.892;16.746;2023-07-20T10:40:28;98848.88;;;22.81;53.83
37200;BME280;23096;50.892;16.746;2023-07-20T10:43:09;98850.61;;;22.65;53.38
37200;BME280;23096;50.892;16.746;2023-07-20T10:48:14;98843.84;;;22.68;53.07
37200;BME280;23096;50.892;16.746;2023-07-20T10:50:41;98843.77;;;22.71;52.83
37200;BME280;23096;50.892;16.746;2023-07-20T10:53:15;98847.35;;;22.68;52.60
37200;BME280;23096;50.892;16.746;2023-07-20T10:55:41;98843.14;;;22.69;52.43
37200;BME280;23096;50.892;16.746;2023-07-20T10:58:13;98843.95;;;22.73;52.15
37200;BME280;23096;50.892;16.746;2023-07-20T11:01:01;98844.24;;;22.78;51.87
37200;BME280;23096;50.892;16.746;2023-07-20T11:03:28;98847.67;;;22.78;51.46
37200;BME280;23096;50.892;16.746;2023-07-20T11:05:55;98843.30;;;22.77;51.20
37200;BME280;23096;50.892;16.746;2023-07-20T11:08:43;98847.93;;;22.80;51.13
37200;BME280;23096;50.892;16.746;2023-07-20T11:11:29;98849.08;;;22.95;51.11
37200;BME280;23096;50.892;16.746;2023-07-20T11:13:57;98848.27;;;23.13;51.11
37200;BME280;23096;50.892;16.746;2023-07-20T11:16:40;98849.96;;;23.28;50.94
37200;BME280;23096;50.892;16.746;2023-07-20T11:19:14;98844.87;;;23.26;50.43
37200;BME280;23096;50.892;16.746;2023-07-20T11:21:44;98848.86;;;23.19;50.22
37200;BME280;23096;50.892;16.746;2023-07-20T11:24:10;98849.11;;;23.12;49.92
37200;BME280;23096;50.892;16.746;2023-07-20T11:26:49;98847.92;;;23.04;49.80
37200;BME280;23096;50.892;16.746;2023-07-20T11:29:17;98847.84;;;23.01;49.54
37200;BME280;23096;50.892;16.746;2023-07-20T11:31:44;98854.16;;;22.90;49.36
37200;BME280;23096;50.892;16.746;2023-07-20T11:34:12;98863.28;;;22.74;49.33
37200;BME280;23096;50.892;16.746;2023-07-20T11:36:43;98867.13;;;22.63;49.29
37200;BME280;23096;50.892;16.746;2023-07-20T11:39:20;98869.13;;;22.54;49.33
37200;BME280;23096;50.892;16.746;2023-07-20T11:41:48;98869.45;;;22.42;49.32
37200;BME280;23096;50.892;16.746;2023-07-20T11:44:23;98864.48;;;22.41;49.44
37200;BME280;23096;50.892;16.746;2023-07-20T11:46:59;98866.11;;;22.52;49.67
37200;BME280;23096;50.892;16.746;2023-07-20T11:49:26;98871.34;;;22.61;49.48
37200;BME280;23096;50.892;16.746;2023-07-20T11:51:52;98873.66;;;22.54;49.11
37200;BME280;23096;50.892;16.746;2023-07-20T11:54:18;98873.89;;;22.43;49.00
37200;BME280;23096;50.892;16.746;2023-07-20T11:56:44;98872.58;;;22.38;48.93
37200;BME280;23096;50.892;16.746;2023-07-20T11:59:09;98876.39;;;22.34;48.79
37200;BME280;23096;50.892;16.746;2023-07-20T12:01:35;98872.89;;;22.26;48.73
37200;BME280;23096;50.892;16.746;2023-07-20T12:04:04;98877.96;;;22.12;48.60
37200;BME280;23096;50.892;16.746;2023-07-20T12:06:30;98879.30;;;21.98;48.72
37200;BME280;23096;50.892;16.746;2023-07-20T12:08:57;98888.46;;;21.91;48.72
37200;BME280;23096;50.892;16.746;2023-07-20T12:11:37;98885.89;;;21.84;48.86
37200;BME280;23096;50.892;16.746;2023-07-20T12:14:04;98887.84;;;21.75;48.78
37200;BME280;23096;50.892;16.746;2023-07-20T12:16:31;98886.02;;;21.74;48.87
37200;BME280;23096;50.892;16.746;2023-07-20T12:19:05;98884.64;;;21.83;49.05
37200;BME280;23096;50.892;16.746;2023-07-20T12:21:31;98886.92;;;21.93;49.22
37200;BME280;23096;50.892;16.746;2023-07-20T12:23:58;98884.64;;;22.03;49.27
37200;BME280;23096;50.892;16.746;2023-07-20T12:26:24;98887.02;;;22.10;49.21
37200;BME280;23096;50.892;16.746;2023-07-20T12:28:51;98889.66;;;22.06;49.15
37200;BME280;23096;50.892;16.746;2023-07-20T12:31:17;98886.01;;;22.04;49.19
37200;BME280;23096;50.892;16.746;2023-07-20T12:33:43;98885.62;;;22.02;49.10
37200;BME280;23096;50.892;16.746;2023-07-20T12:36:09;98883.96;;;21.97;49.05
37200;BME280;23096;50.892;16.746;2023-07-20T12:38:36;98878.11;;;21.93;49.07
37200;BME280;23096;50.892;16.746;2023-07-20T12:41:02;98873.91;;;21.91;49.24
37200;BME280;23096;50.892;16.746;2023-07-20T12:43:28;98875.98;;;21.90;49.48
37200;BME280;23096;50.892;16.746;2023-07-20T12:45:55;98882.75;;;21.88;49.44
37200;BME280;23096;50.892;16.746;2023-07-20T12:48:21;98889.20;;;21.80;49.55
37200;BME280;23096;50.892;16.746;2023-07-20T12:50:48;98885.13;;;21.72;49.69
37200;BME280;23096;50.892;16.746;2023-07-20T12:53:14;98882.69;;;21.68;49.85
37200;BME280;23096;50.892;16.746;2023-07-20T12:55:40;98879.60;;;21.68;49.92
37200;BME280;23096;50.892;16.746;2023-07-20T12:58:07;98874.86;;;21.63;49.95
37200;BME280;23096;50.892;16.746;2023-07-20T13:00:32;98874.15;;;21.57;50.12